createdAt,value
2017-05-30T00:00:17.839Z,59.4
2017-05-30T00:01:20.051Z,59.4
2017-05-30T00:02:23.404Z,59.3
2017-05-30T00:03:26.251Z,59.4
2017-05-30T00:04:29.094Z,59.4
2017-05-30T00:05:32.700Z,59.6
2017-05-30T00:06:35.043Z,59.4
2017-05-30T00:07:38.261Z,59.6
2017-05-30T00:08:40.912Z,59.3
2017-05-30T00:09:44.264Z,59.4
2017-05-30T00:10:47.415Z,59.3
2017-05-30T00:11:50.264Z,59.2
2017-05-30T00:12:53.127Z,59
2017-05-30T00:13:55.976Z,59
2017-05-30T00:14:58.826Z,58.9
2017-05-30T00:16:01.937Z,58.9
2017-05-30T00:17:04.647Z,59
2017-05-30T00:18:07.996Z,59.1
2017-05-30T00:19:10.714Z,58.8
2017-05-30T00:20:13.563Z,58.9
2017-05-30T00:21:17.165Z,59.3
2017-05-30T00:22:19.508Z,58.7
2017-05-30T00:23:22.853Z,58.7
2017-05-30T00:24:25.696Z,58.9
2017-05-30T00:25:28.544Z,58.6
2017-05-30T00:26:31.510Z,58.6
2017-05-30T00:27:34.356Z,58.5
2017-05-30T00:28:37.703Z,58.5
2017-05-30T00:29:40.548Z,58.4
2017-05-30T00:30:43.404Z,58.4
2017-05-30T00:31:46.511Z,58.4
2017-05-30T00:32:49.396Z,58.4
2017-05-30T00:33:52.105Z,58.4
2017-05-30T00:34:55.458Z,58.8
2017-05-30T00:35:58.314Z,58.9
2017-05-30T00:37:01.276Z,59.1
2017-05-30T00:38:04.136Z,59
2017-05-30T00:39:06.983Z,58.9
2017-05-30T00:40:10.339Z,59.1
2017-05-30T00:42:16.354Z,59
2017-05-30T00:43:19.067Z,59.3
2017-05-30T00:44:21.911Z,59.3
2017-05-30T00:45:24.758Z,59.1
2017-05-30T00:46:27.842Z,59.2
2017-05-30T00:47:31.320Z,59.2
2017-05-30T00:48:33.665Z,59.2
2017-05-30T00:49:37.018Z,59.1
2017-05-30T00:50:39.863Z,59.1
2017-05-30T00:51:42.713Z,59.3
2017-05-30T00:52:45.819Z,59.1
2017-05-30T00:53:48.679Z,59.2
2017-05-30T00:54:51.530Z,59.3
2017-05-30T00:55:54.377Z,59.3
2017-05-30T00:56:57.459Z,59.3
2017-05-30T00:58:00.471Z,59.3
2017-05-30T00:59:03.315Z,59.4
2017-05-30T01:00:06.663Z,59.3
2017-05-30T01:02:12.425Z,59.5
2017-05-30T01:03:15.389Z,59.5
2017-05-30T01:04:18.237Z,59.5
2017-05-30T01:05:20.950Z,59.8
2017-05-30T01:06:24.302Z,59.7
2017-05-30T01:07:27.150Z,59.5
2017-05-30T01:08:30.169Z,59.6
2017-05-30T01:09:33.020Z,59.6
2017-05-30T01:10:35.869Z,59.9
2017-05-30T01:11:39.218Z,59.8
2017-05-30T01:12:41.939Z,60
2017-05-30T01:13:45.099Z,60
2017-05-30T01:14:47.950Z,60.1
2017-05-30T01:15:50.799Z,60.5
2017-05-30T01:17:56.570Z,60.5
2017-05-30T01:19:00.174Z,60.9
2017-05-30T01:20:02.581Z,61.1
2017-05-30T01:21:05.801Z,60.8
2017-05-30T01:22:08.508Z,60.9
2017-05-30T01:23:11.358Z,60.9
2017-05-30T01:25:17.739Z,60.9
2017-05-30T01:26:19.995Z,60.8
2017-05-30T01:27:23.350Z,61
2017-05-30T01:28:26.197Z,60.9
2017-05-30T01:29:29.413Z,60.9
2017-05-30T01:30:32.376Z,60.9
2017-05-30T01:31:35.224Z,61.1
2017-05-30T01:32:38.072Z,61
2017-05-30T01:33:40.923Z,60.9
2017-05-30T01:34:44.006Z,61.1
2017-05-30T01:35:47.110Z,61
2017-05-30T01:36:49.962Z,61.2
2017-05-30T01:37:52.811Z,61.3
2017-05-30T01:38:55.665Z,61.3
2017-05-30T01:39:58.534Z,61.3
2017-05-30T01:41:02.190Z,61.5
2017-05-30T01:42:04.535Z,61.5
2017-05-30T01:43:07.382Z,61.6
2017-05-30T01:44:10.735Z,61.6
2017-05-30T01:45:13.584Z,61.7
2017-05-30T01:46:16.546Z,61.9
2017-05-30T01:48:22.310Z,62
2017-05-30T01:49:25.157Z,62.2
2017-05-30T01:50:28.507Z,62
2017-05-30T01:51:31.474Z,62.1
2017-05-30T01:52:34.187Z,62
2017-05-30T01:53:36.903Z,62.2
2017-05-30T01:55:43.180Z,62.1
2017-05-30T01:56:46.141Z,62.3
2017-05-30T01:57:49.556Z,62.3
2017-05-30T01:58:51.898Z,62.3
2017-05-30T01:59:54.478Z,62.3
2017-05-30T02:00:57.832Z,62.5
2017-05-30T02:02:00.929Z,62.4
2017-05-30T02:03:03.506Z,62.9
2017-05-30T02:04:06.353Z,62.4
2017-05-30T02:05:09.575Z,62.4
2017-05-30T02:06:12.288Z,62.5
2017-05-30T02:07:15.891Z,62.6
2017-05-30T02:08:18.243Z,62.6
2017-05-30T02:09:21.465Z,62.7
2017-05-30T02:11:27.226Z,62.7
2017-05-30T02:12:30.325Z,62.7
2017-05-30T02:13:33.172Z,62.8
2017-05-30T02:14:36.024Z,62.9
2017-05-30T02:15:38.871Z,63
2017-05-30T02:16:42.101Z,63
2017-05-30T02:17:45.197Z,62.9
2017-05-30T02:18:48.039Z,62.9
2017-05-30T02:19:50.884Z,63
2017-05-30T02:20:53.725Z,62.8
2017-05-30T02:21:56.618Z,63.1
2017-05-30T02:22:59.770Z,63
2017-05-30T02:24:02.623Z,63.1
2017-05-30T02:25:05.480Z,63.2
2017-05-30T02:26:08.328Z,63.2
2017-05-30T02:27:11.173Z,63.2
2017-05-30T02:28:14.773Z,63.1
2017-05-30T02:29:17.120Z,63.2
2017-05-30T02:30:20.337Z,63.2
2017-05-30T02:31:23.053Z,63.2
2017-05-30T02:32:25.897Z,63.5
2017-05-30T02:33:29.501Z,63.3
2017-05-30T02:34:31.850Z,63.4
2017-05-30T02:35:34.699Z,63.4
2017-05-30T02:36:38.061Z,63.5
2017-05-30T02:37:40.908Z,63.5
2017-05-30T02:38:43.879Z,63.5
2017-05-30T02:39:46.596Z,63.5
2017-05-30T02:40:49.442Z,63.5
2017-05-30T02:41:52.292Z,63.6
2017-05-30T02:42:55.641Z,63.5
2017-05-30T02:43:58.742Z,63.5
2017-05-30T02:45:01.111Z,63.3
2017-05-30T02:46:04.465Z,63.4
2017-05-30T02:47:07.314Z,63.4
2017-05-30T02:48:10.158Z,63.4
2017-05-30T02:49:13.260Z,63.3
2017-05-30T02:50:16.108Z,63.5
2017-05-30T02:51:18.821Z,63.3
2017-05-30T02:52:21.671Z,63.3
2017-05-30T02:53:24.892Z,63.3
2017-05-30T02:54:27.855Z,63.5
2017-05-30T02:55:30.718Z,63.5
2017-05-30T02:56:33.421Z,63.7
2017-05-30T02:57:36.768Z,63.7
2017-05-30T02:58:39.606Z,63.8
2017-05-30T03:00:45.530Z,63.6
2017-05-30T03:01:48.372Z,63.8
2017-05-30T03:03:53.999Z,63.7
2017-05-30T03:04:56.842Z,63.7
2017-05-30T03:06:00.450Z,63.8
2017-05-30T03:07:02.789Z,63.5
2017-05-30T03:08:06.135Z,63.6
2017-05-30T03:09:08.978Z,63.7
2017-05-30T03:10:11.818Z,64
2017-05-30T03:11:14.909Z,64.1
2017-05-30T03:12:17.753Z,63.9
2017-05-30T03:13:20.457Z,64.1
2017-05-30T03:14:23.303Z,63.9
2017-05-30T03:15:26.657Z,63.9
2017-05-30T03:16:29.750Z,63.9
2017-05-30T03:17:32.142Z,63.9
2017-05-30T03:19:37.896Z,63.8
2017-05-30T03:20:41.239Z,63.8
2017-05-30T03:21:44.330Z,63.7
2017-05-30T03:22:47.177Z,63.5
2017-05-30T03:23:50.021Z,63.7
2017-05-30T03:24:52.867Z,63.3
2017-05-30T03:25:55.712Z,63.5
2017-05-30T03:26:58.804Z,63.3
2017-05-30T03:28:01.649Z,63.2
2017-05-30T03:29:04.906Z,63.2
2017-05-30T03:30:07.112Z,63
2017-05-30T03:31:10.190Z,62.9
2017-05-30T03:32:13.791Z,62.8
2017-05-30T03:33:16.072Z,62.7
2017-05-30T03:34:19.154Z,62.8
2017-05-30T03:35:21.934Z,62.6
2017-05-30T03:36:25.024Z,62.7
2017-05-30T03:37:27.994Z,62.5
2017-05-30T03:38:30.705Z,62.4
2017-05-30T03:39:34.048Z,62.4
2017-05-30T03:40:36.758Z,62.3
2017-05-30T03:41:39.465Z,62.1
2017-05-30T03:42:43.064Z,61.9
2017-05-30T03:43:45.413Z,62
2017-05-30T03:44:48.762Z,61.7
2017-05-30T03:45:51.607Z,61.6
2017-05-30T03:46:54.317Z,61.4
2017-05-30T03:47:57.786Z,61.4
2017-05-30T03:49:00.142Z,61.3
2017-05-30T03:50:02.985Z,61.3
2017-05-30T03:51:06.258Z,61
2017-05-30T03:52:08.969Z,60.7
2017-05-30T03:53:12.429Z,60.3
2017-05-30T03:54:15.135Z,60.1
2017-05-30T03:55:17.979Z,59.8
2017-05-30T03:56:20.819Z,59.7
2017-05-30T03:57:23.655Z,59.6
2017-05-30T03:58:26.744Z,59.3
2017-05-30T03:59:29.452Z,59.2
2017-05-30T04:00:32.795Z,58.9
2017-05-30T04:01:35.685Z,58.7
2017-05-30T04:02:38.529Z,58.6
2017-05-30T04:03:41.641Z,58.5
2017-05-30T04:04:44.485Z,58.4
2017-05-30T04:05:47.329Z,58.3
2017-05-30T04:06:50.171Z,57.9
2017-05-30T04:07:53.386Z,57.5
2017-05-30T04:08:56.547Z,57.6
2017-05-30T04:09:59.391Z,57.5
2017-05-30T04:11:02.235Z,57.5
2017-05-30T04:12:05.077Z,57.6
2017-05-30T04:13:07.784Z,57.4
2017-05-30T04:14:11.428Z,57.1
2017-05-30T04:15:14.136Z,57.1
2017-05-30T04:16:16.978Z,57
2017-05-30T04:17:19.820Z,56.8
2017-05-30T04:18:22.669Z,56.5
2017-05-30T04:19:26.320Z,56.1
2017-05-30T04:20:28.527Z,56.1
2017-05-30T04:21:31.602Z,55.9
2017-05-30T04:22:34.677Z,55.7
2017-05-30T04:23:37.519Z,55.7
2017-05-30T04:24:41.165Z,55.7
2017-05-30T04:25:43.567Z,55.7
2017-05-30T04:26:46.408Z,55.6
2017-05-30T04:28:52.673Z,55.3
2017-05-30T04:29:55.825Z,55.1
2017-05-30T04:30:58.672Z,55.1
2017-05-30T04:32:01.509Z,55.4
2017-05-30T04:33:04.396Z,55
2017-05-30T04:34:07.100Z,54.7
2017-05-30T04:35:10.565Z,54.2
2017-05-30T04:36:13.405Z,54
2017-05-30T04:37:16.112Z,54.2
2017-05-30T04:38:19.322Z,53.7
2017-05-30T04:39:22.531Z,53.5
2017-05-30T04:40:25.625Z,53.6
2017-05-30T04:41:28.335Z,53.2
2017-05-30T04:42:31.547Z,53.2
2017-05-30T04:43:34.257Z,52.9
2017-05-30T04:44:37.480Z,52.7
2017-05-30T04:45:40.498Z,52.6
2017-05-30T04:46:43.395Z,52.7
2017-05-30T04:47:46.242Z,52.6
2017-05-30T04:48:49.090Z,52.4
2017-05-30T04:49:52.434Z,52.2
2017-05-30T04:50:55.522Z,52
2017-05-30T04:51:58.365Z,51.9
2017-05-30T04:53:01.207Z,52.1
2017-05-30T04:54:04.048Z,52.2
2017-05-30T04:55:07.394Z,52.5
2017-05-30T04:56:10.487Z,52
2017-05-30T04:57:13.332Z,51.9
2017-05-30T04:58:16.037Z,51.7
2017-05-30T04:59:19.379Z,51.7
2017-05-30T05:00:22.089Z,51.4
2017-05-30T05:01:25.689Z,51.4
2017-05-30T05:02:28.528Z,51.4
2017-05-30T05:03:31.239Z,51.6
2017-05-30T05:04:35.130Z,51.7
2017-05-30T05:05:37.469Z,51.4
2017-05-30T05:06:40.428Z,51.3
2017-05-30T05:07:43.271Z,51.1
2017-05-30T05:08:46.632Z,50.8
2017-05-30T05:09:49.338Z,50.9
2017-05-30T05:10:52.687Z,50.4
2017-05-30T05:11:55.830Z,50.8
2017-05-30T05:12:58.673Z,50.2
2017-05-30T05:14:01.514Z,50.5
2017-05-30T05:15:04.362Z,50.6
2017-05-30T05:16:07.573Z,50.8
2017-05-30T05:17:10.668Z,50.7
2017-05-30T05:18:13.507Z,50.8
2017-05-30T05:19:16.723Z,50.7
2017-05-30T05:20:19.567Z,50.2
2017-05-30T05:21:22.774Z,50.2
2017-05-30T05:22:26.237Z,50.5
2017-05-30T05:23:28.574Z,50.7
2017-05-30T05:24:31.786Z,50.1
2017-05-30T05:25:35.005Z,50
2017-05-30T05:26:37.853Z,49.8
2017-05-30T05:27:40.949Z,50
2017-05-30T05:28:43.795Z,49.9
2017-05-30T05:29:47.156Z,49.5
2017-05-30T05:30:49.999Z,49.5
2017-05-30T05:31:53.215Z,49
2017-05-30T05:32:56.181Z,48.9
2017-05-30T05:33:59.038Z,48.6
2017-05-30T05:35:02.383Z,48
2017-05-30T05:36:05.276Z,48.1
2017-05-30T05:37:07.990Z,48.1
2017-05-30T05:38:11.590Z,48.2
2017-05-30T05:39:14.303Z,48
2017-05-30T05:40:17.144Z,47.4
2017-05-30T05:42:23.404Z,47.1
2017-05-30T05:43:27.002Z,47.3
2017-05-30T05:44:29.342Z,47.2
2017-05-30T05:45:32.689Z,47.6
2017-05-30T05:46:35.535Z,47.2
2017-05-30T05:47:38.880Z,46.7
2017-05-30T05:48:41.970Z,46.5
2017-05-30T05:49:44.676Z,46.5
2017-05-30T05:50:48.021Z,46.6
2017-05-30T05:51:50.863Z,46.8
2017-05-30T05:52:54.207Z,46.6
2017-05-30T05:53:57.171Z,47.2
2017-05-30T05:55:00.015Z,46.9
2017-05-30T05:56:03.359Z,46.9
2017-05-30T05:57:06.213Z,46.5
2017-05-30T05:58:09.061Z,46.7
2017-05-30T05:59:12.711Z,46.7
2017-05-30T06:00:15.419Z,46.6
2017-05-30T06:01:18.260Z,46
2017-05-30T06:02:21.601Z,45.8
2017-05-30T06:03:24.441Z,45.7
2017-05-30T06:04:27.905Z,46.1
2017-05-30T06:05:30.752Z,46.2
2017-05-30T06:06:33.599Z,46.2
2017-05-30T06:07:36.815Z,46.5
2017-05-30T06:08:40.027Z,46.7
2017-05-30T06:09:43.167Z,47
2017-05-30T06:10:46.009Z,47.1
2017-05-30T06:11:49.352Z,47.1
2017-05-30T06:12:52.063Z,47.7
2017-05-30T06:13:55.287Z,48.3
2017-05-30T06:14:58.383Z,48.5
2017-05-30T06:16:01.229Z,48.5
2017-05-30T06:17:04.580Z,48.8
2017-05-30T06:18:07.522Z,48.7
2017-05-30T06:19:10.730Z,48.7
2017-05-30T06:20:13.828Z,48.8
2017-05-30T06:21:16.675Z,48.9
2017-05-30T06:22:19.523Z,48.8
2017-05-30T06:23:22.738Z,49.2
2017-05-30T06:24:25.582Z,49.2
2017-05-30T06:25:29.176Z,49.2
2017-05-30T06:26:32.021Z,49.5
2017-05-30T06:27:34.865Z,49.5
2017-05-30T06:28:37.756Z,49.4
2017-05-30T06:29:41.108Z,49.6
2017-05-30T06:30:44.198Z,49.5
2017-05-30T06:31:46.973Z,49.7
2017-05-30T06:33:53.104Z,49.7
2017-05-30T06:34:56.451Z,49.9
2017-05-30T06:35:59.610Z,50.1
2017-05-30T06:37:02.184Z,50.3
2017-05-30T06:38:05.394Z,50.4
2017-05-30T06:39:08.237Z,50.2
2017-05-30T06:40:11.583Z,49.7
2017-05-30T06:41:14.544Z,49.4
2017-05-30T06:42:17.384Z,49.4
2017-05-30T06:43:20.728Z,49.6
2017-05-30T06:44:23.566Z,49.5
2017-05-30T06:45:26.775Z,49.3
2017-05-30T06:46:29.738Z,49.3
2017-05-30T06:47:32.949Z,49.6
2017-05-30T06:48:35.794Z,49.4
2017-05-30T06:49:38.636Z,49.3
2017-05-30T06:50:41.844Z,49.3
2017-05-30T06:51:44.937Z,49.2
2017-05-30T06:52:48.149Z,49.4
2017-05-30T06:53:50.991Z,49.4
2017-05-30T06:54:53.836Z,49.4
2017-05-30T06:55:57.190Z,49.5
2017-05-30T06:57:00.284Z,49.8
2017-05-30T06:58:03.125Z,49.7
2017-05-30T06:59:05.963Z,49.7
2017-05-30T07:00:09.365Z,49.8
2017-05-30T07:01:12.207Z,49.8
2017-05-30T07:02:15.723Z,49.9
2017-05-30T07:03:18.577Z,49.8
2017-05-30T07:04:21.287Z,49.9
2017-05-30T07:05:24.646Z,50
2017-05-30T07:06:27.491Z,49.9
2017-05-30T07:07:30.950Z,50
2017-05-30T07:08:33.654Z,50.1
2017-05-30T07:09:36.495Z,50
2017-05-30T07:10:39.841Z,50
2017-05-30T07:11:42.679Z,50
2017-05-30T07:12:45.771Z,50
2017-05-30T07:13:48.620Z,50
2017-05-30T07:14:51.971Z,50.1
2017-05-30T07:15:54.814Z,49.8
2017-05-30T07:16:57.661Z,49.9
2017-05-30T07:18:01.278Z,50.2
2017-05-30T07:19:04.127Z,50.4
2017-05-30T07:20:06.974Z,50.5
2017-05-30T07:21:09.821Z,50.5
2017-05-30T07:22:13.033Z,50.6
2017-05-30T07:23:16.042Z,50.7
2017-05-30T07:24:18.749Z,50.7
2017-05-30T07:25:21.960Z,50.6
2017-05-30T07:26:25.307Z,50.7
2017-05-30T07:27:28.027Z,50.5
2017-05-30T07:28:31.360Z,50.7
2017-05-30T07:29:34.063Z,50.9
2017-05-30T07:30:37.274Z,50.9
2017-05-30T07:31:40.488Z,50.6
2017-05-30T07:32:43.337Z,50.9
2017-05-30T07:33:46.440Z,50.7
2017-05-30T07:34:49.281Z,50.2
2017-05-30T07:35:52.630Z,50
2017-05-30T07:36:55.476Z,49.8
2017-05-30T07:37:58.689Z,49.3
2017-05-30T07:39:01.785Z,49.1
2017-05-30T07:40:04.495Z,49
2017-05-30T07:41:07.333Z,48.4
2017-05-30T07:42:10.550Z,47.9
2017-05-30T07:43:13.262Z,47.9
2017-05-30T07:45:19.693Z,47.8
2017-05-30T07:46:22.401Z,47.9
2017-05-30T07:47:25.750Z,47.5
2017-05-30T07:48:28.593Z,47.7
2017-05-30T07:49:31.811Z,47.4
2017-05-30T07:50:34.913Z,47.4
2017-05-30T07:51:37.752Z,47.2
2017-05-30T07:52:40.596Z,47.2
2017-05-30T07:53:44.006Z,46.8
2017-05-30T07:54:46.867Z,46.6
2017-05-30T07:55:49.969Z,46.7
2017-05-30T07:56:52.810Z,46.3
2017-05-30T07:57:56.022Z,46.4
2017-05-30T07:58:58.865Z,45.9
2017-05-30T08:00:02.216Z,45.9
2017-05-30T08:01:05.308Z,45.5
2017-05-30T08:02:08.123Z,45.7
2017-05-30T08:03:10.969Z,45.4
2017-05-30T08:04:14.317Z,45.2
2017-05-30T08:05:17.025Z,44.7
2017-05-30T08:07:23.582Z,43
2017-05-30T08:08:26.422Z,42.1
2017-05-30T08:09:29.269Z,41.3
2017-05-30T08:10:32.484Z,40.3
2017-05-30T08:11:35.200Z,39.7
2017-05-30T08:12:38.793Z,40.1
2017-05-30T08:13:41.639Z,39.3
2017-05-30T08:14:44.486Z,39.4
2017-05-30T08:16:50.753Z,39.6
2017-05-30T08:17:53.850Z,39.9
2017-05-30T08:18:56.561Z,40.1
2017-05-30T08:19:59.910Z,41
2017-05-30T08:21:02.751Z,41.2
2017-05-30T08:22:06.128Z,40.8
2017-05-30T08:23:09.225Z,40.7
2017-05-30T08:24:12.071Z,40.7
2017-05-30T08:25:15.284Z,41
2017-05-30T08:26:18.129Z,41.2
2017-05-30T08:27:21.474Z,41.5
2017-05-30T08:28:24.570Z,41.7
2017-05-30T08:29:27.416Z,41.8
2017-05-30T08:30:31.317Z,41.9
2017-05-30T08:31:33.657Z,41.8
2017-05-30T08:32:36.499Z,42
2017-05-30T08:33:39.963Z,42.5
2017-05-30T08:34:42.539Z,42.6
2017-05-30T08:35:45.887Z,42.7
2017-05-30T08:36:49.108Z,43
2017-05-30T08:37:51.814Z,43.1
2017-05-30T08:38:55.413Z,43.5
2017-05-30T08:39:58.254Z,43.5
2017-05-30T08:41:01.338Z,43.6
2017-05-30T08:42:04.041Z,43.7
2017-05-30T08:43:07.391Z,43.9
2017-05-30T08:44:10.405Z,43.6
2017-05-30T08:45:13.247Z,43.5
2017-05-30T08:46:15.958Z,43.6
2017-05-30T08:47:19.170Z,43.8
2017-05-30T08:48:22.387Z,43.6
2017-05-30T08:49:25.492Z,43.6
2017-05-30T08:50:28.576Z,43.8
2017-05-30T08:51:31.277Z,43.7
2017-05-30T08:52:34.493Z,43.7
2017-05-30T08:53:37.840Z,43.7
2017-05-30T08:54:40.937Z,44
2017-05-30T08:55:43.783Z,44
2017-05-30T08:56:46.625Z,44.2
2017-05-30T08:57:49.971Z,44.4
2017-05-30T08:58:52.675Z,44.2
2017-05-30T08:59:56.318Z,44.3
2017-05-30T09:00:59.046Z,44.2
2017-05-30T09:02:01.894Z,44.1
2017-05-30T09:03:05.242Z,44.1
2017-05-30T09:04:08.086Z,44
2017-05-30T09:05:11.552Z,44
2017-05-30T09:06:14.258Z,44.1
2017-05-30T09:07:17.470Z,44
2017-05-30T09:08:20.319Z,44.1
2017-05-30T09:09:23.170Z,44.1
2017-05-30T09:10:26.766Z,43.9
2017-05-30T09:11:29.612Z,43.3
2017-05-30T09:12:32.452Z,43.1
2017-05-30T09:13:35.664Z,43.1
2017-05-30T09:14:38.510Z,43
2017-05-30T09:15:42.105Z,43.3
2017-05-30T09:16:44.950Z,43.4
2017-05-30T09:17:47.815Z,43.5
2017-05-30T09:18:50.660Z,43.3
2017-05-30T09:19:54.004Z,42.9
2017-05-30T09:20:57.658Z,43
2017-05-30T09:21:59.995Z,42.9
2017-05-30T09:23:02.703Z,42.7
2017-05-30T09:24:05.918Z,42.7
2017-05-30T09:25:09.264Z,42.4
2017-05-30T09:26:12.229Z,42.2
2017-05-30T09:27:15.074Z,42.3
2017-05-30T09:28:18.420Z,42.4
2017-05-30T09:29:21.636Z,42.4
2017-05-30T09:30:24.349Z,42.1
2017-05-30T09:31:27.949Z,41.9
2017-05-30T09:32:30.671Z,42.3
2017-05-30T09:33:33.379Z,42
2017-05-30T09:34:36.587Z,41.9
2017-05-30T09:35:39.795Z,42
2017-05-30T09:36:43.258Z,41.8
2017-05-30T09:37:46.095Z,41.9
2017-05-30T09:38:48.801Z,41.8
2017-05-30T09:39:52.013Z,42
2017-05-30T09:40:55.359Z,41.5
2017-05-30T09:41:58.453Z,41.6
2017-05-30T09:43:01.293Z,41.8
2017-05-30T09:44:04.503Z,42
2017-05-30T09:45:07.349Z,42.2
2017-05-30T09:46:10.698Z,41.9
2017-05-30T09:47:13.795Z,42
2017-05-30T09:48:16.640Z,41.9
2017-05-30T09:49:19.484Z,42
2017-05-30T09:50:22.560Z,42
2017-05-30T09:51:25.907Z,42.1
2017-05-30T09:52:29.002Z,41.9
2017-05-30T09:53:31.849Z,41.7
2017-05-30T09:54:35.193Z,41.8
2017-05-30T09:55:37.899Z,41.8
2017-05-30T09:56:41.107Z,42
2017-05-30T09:57:44.703Z,41.6
2017-05-30T09:58:47.546Z,41.4
2017-05-30T09:59:50.382Z,40.8
2017-05-30T10:00:53.593Z,41.1
2017-05-30T10:01:56.301Z,41.3
2017-05-30T10:02:59.898Z,42.1
2017-05-30T10:04:02.604Z,42.9
2017-05-30T10:05:05.814Z,45.7
2017-05-30T10:06:08.703Z,46.8
2017-05-30T10:07:12.052Z,47.1
2017-05-30T10:08:15.150Z,47.1
2017-05-30T10:09:17.991Z,47.8
2017-05-30T10:10:20.832Z,47.5
2017-05-30T10:11:24.048Z,47.6
2017-05-30T10:12:27.263Z,47.5
2017-05-30T10:13:30.359Z,47.1
2017-05-30T10:14:33.201Z,46.8
2017-05-30T10:15:36.043Z,47.8
2017-05-30T10:16:39.254Z,47.3
2017-05-30T10:17:42.093Z,47.8
2017-05-30T10:18:45.555Z,48
2017-05-30T10:19:48.392Z,48.4
2017-05-30T10:20:51.608Z,47.3
2017-05-30T10:21:54.179Z,46.5
2017-05-30T10:22:57.526Z,46.3
2017-05-30T10:24:00.624Z,45.6
2017-05-30T10:25:03.474Z,45.7
2017-05-30T10:26:06.364Z,45.8
2017-05-30T10:27:09.706Z,46.8
2017-05-30T10:28:12.408Z,49.3
2017-05-30T10:29:15.920Z,51
2017-05-30T10:31:22.108Z,51.6
2017-05-30T10:32:24.951Z,52.4
2017-05-30T10:33:27.791Z,51
2017-05-30T10:34:30.749Z,51.8
2017-05-30T10:35:33.585Z,52.1
2017-05-30T10:36:36.799Z,52.6
2017-05-30T10:37:39.510Z,52.5
2017-05-30T10:38:42.858Z,50.6
2017-05-30T10:39:45.815Z,52.3
2017-05-30T10:40:48.521Z,51.4
2017-05-30T10:41:51.871Z,51.8
2017-05-30T10:42:54.713Z,51.2
2017-05-30T10:43:57.279Z,51.5
2017-05-30T10:45:00.741Z,53.7
2017-05-30T10:46:03.582Z,51.4
2017-05-30T10:47:06.423Z,51.6
2017-05-30T10:48:09.770Z,51.3
2017-05-30T10:49:12.482Z,50.6
2017-05-30T10:50:15.575Z,51.1
2017-05-30T10:51:18.286Z,50.7
2017-05-30T10:52:21.495Z,50.9
2017-05-30T10:53:24.203Z,50.9
2017-05-30T10:54:27.413Z,50.3
2017-05-30T10:55:30.873Z,50
2017-05-30T10:56:33.072Z,50.2
2017-05-30T10:57:36.423Z,49.4
2017-05-30T10:58:39.136Z,50.1
2017-05-30T10:59:42.481Z,49.7
2017-05-30T11:00:45.440Z,49.3
2017-05-30T11:01:48.278Z,50
2017-05-30T11:02:51.114Z,50.5
2017-05-30T11:03:54.323Z,50.5
2017-05-30T11:04:57.163Z,50.5
2017-05-30T11:06:00.254Z,50.3
2017-05-30T11:07:03.094Z,49.7
2017-05-30T11:08:06.311Z,49.6
2017-05-30T11:09:09.153Z,50.2
2017-05-30T11:10:11.989Z,50.8
2017-05-30T11:11:15.453Z,52.3
2017-05-30T11:12:17.652Z,55.9
2017-05-30T11:13:21.005Z,55.9
2017-05-30T11:14:23.848Z,57.4
2017-05-30T11:15:26.687Z,58.6
2017-05-30T11:16:29.970Z,57.6
2017-05-30T11:17:32.680Z,56.4
2017-05-30T11:18:35.757Z,56.9
2017-05-30T11:19:38.602Z,56.4
2017-05-30T11:20:41.944Z,58.2
2017-05-30T11:21:45.037Z,56.1
2017-05-30T11:22:47.885Z,56.9
2017-05-30T11:23:50.593Z,55.9
2017-05-30T11:24:53.438Z,56
2017-05-30T11:25:56.650Z,56.7
2017-05-30T11:26:59.742Z,55.9
2017-05-30T11:28:02.590Z,55.3
2017-05-30T11:29:05.429Z,56
2017-05-30T11:30:08.278Z,56.6
2017-05-30T11:31:11.487Z,55.7
2017-05-30T11:32:14.503Z,54.7
2017-05-30T11:33:17.349Z,52.8
2017-05-30T11:34:20.563Z,51.6
2017-05-30T11:35:23.405Z,50.8
2017-05-30T11:36:26.249Z,50
2017-05-30T11:37:29.344Z,49.1
2017-05-30T11:38:32.183Z,50
2017-05-30T11:39:35.398Z,49.3
2017-05-30T11:40:38.242Z,49.9
2017-05-30T11:41:41.089Z,49
2017-05-30T11:42:44.739Z,49
2017-05-30T11:43:46.949Z,49.3
2017-05-30T11:44:50.300Z,48.7
2017-05-30T11:45:53.011Z,48.6
2017-05-30T11:46:56.352Z,47.9
2017-05-30T11:47:59.444Z,48.3
2017-05-30T11:49:02.283Z,47.3
2017-05-30T11:50:05.123Z,47.9
2017-05-30T11:51:08.207Z,46.9
2017-05-30T11:52:11.416Z,47.1
2017-05-30T11:54:17.974Z,47.5
2017-05-30T11:55:20.312Z,47.6
2017-05-30T11:56:23.157Z,48.1
2017-05-30T11:57:26.002Z,47.9
2017-05-30T11:58:29.219Z,47.6
2017-05-30T11:59:32.363Z,47.6
2017-05-30T12:00:35.073Z,47.8
2017-05-30T12:01:38.425Z,48.2
2017-05-30T12:02:40.991Z,47.7
2017-05-30T12:03:44.066Z,48
2017-05-30T12:04:47.530Z,48.3
2017-05-30T12:05:50.238Z,48.1
2017-05-30T12:06:53.581Z,48.1
2017-05-30T12:07:56.420Z,48.3
2017-05-30T12:08:59.261Z,48.1
2017-05-30T12:10:02.729Z,48.1
2017-05-30T12:11:05.437Z,48.1
2017-05-30T12:12:08.143Z,47.4
2017-05-30T12:13:11.354Z,47.6
2017-05-30T12:14:14.566Z,48
2017-05-30T12:15:17.658Z,47.8
2017-05-30T12:16:20.497Z,48
2017-05-30T12:17:23.843Z,48.3
2017-05-30T12:18:26.686Z,48
2017-05-30T12:19:29.527Z,48.2
2017-05-30T12:20:33.182Z,48.4
2017-05-30T12:21:36.041Z,48.3
2017-05-30T12:22:38.883Z,48
2017-05-30T12:23:41.728Z,48.1
2017-05-30T12:24:45.075Z,47.4
2017-05-30T12:25:47.784Z,48.5
2017-05-30T12:26:51.131Z,48.7
2017-05-30T12:27:53.970Z,49.2
2017-05-30T12:28:57.313Z,49.3
2017-05-30T12:30:00.155Z,49.3
2017-05-30T12:31:03.254Z,50
2017-05-30T12:32:06.098Z,49.8
2017-05-30T12:33:09.309Z,50.1
2017-05-30T12:34:12.519Z,49.8
2017-05-30T12:35:15.223Z,49.6
2017-05-30T12:36:18.684Z,49.5
2017-05-30T12:37:21.531Z,50.2
2017-05-30T12:38:24.374Z,50
2017-05-30T12:39:27.722Z,50.7
2017-05-30T12:40:30.562Z,50.7
2017-05-30T12:41:33.657Z,50.5
2017-05-30T12:42:36.502Z,50.3
2017-05-30T12:43:39.712Z,50.7
2017-05-30T12:44:42.553Z,50.7
2017-05-30T12:45:45.898Z,50.2
2017-05-30T12:46:48.991Z,51
2017-05-30T12:47:51.564Z,50.6
2017-05-30T12:48:54.641Z,50.7
2017-05-30T12:49:57.984Z,50.7
2017-05-30T12:51:00.694Z,50.5
2017-05-30T12:52:04.335Z,50.8
2017-05-30T12:53:06.909Z,50.4
2017-05-30T12:54:10.257Z,50.8
2017-05-30T12:55:13.098Z,51.1
2017-05-30T12:56:16.308Z,51
2017-05-30T12:57:19.403Z,51.2
2017-05-30T12:58:22.248Z,51
2017-05-30T12:59:25.598Z,51
2017-05-30T13:00:28.438Z,51
2017-05-30T13:01:31.144Z,51.4
2017-05-30T13:02:34.739Z,51.4
2017-05-30T13:03:37.441Z,51.5
2017-05-30T13:04:40.787Z,51.6
2017-05-30T13:05:43.683Z,51.9
2017-05-30T13:06:46.393Z,51.6
2017-05-30T13:07:49.726Z,51.8
2017-05-30T13:08:52.437Z,51.8
2017-05-30T13:09:55.777Z,52.4
2017-05-30T13:10:58.617Z,52.2
2017-05-30T13:12:01.829Z,52
2017-05-30T13:13:04.925Z,51.8
2017-05-30T13:14:07.765Z,52
2017-05-30T13:15:10.977Z,51.3
2017-05-30T13:16:13.819Z,51.4
2017-05-30T13:17:17.029Z,51.5
2017-05-30T13:18:20.128Z,51.9
2017-05-30T13:19:22.979Z,51.5
2017-05-30T13:20:26.324Z,52.2
2017-05-30T13:21:29.167Z,52.3
2017-05-30T13:22:31.876Z,52.1
2017-05-30T13:23:35.474Z,51.7
2017-05-30T13:24:38.317Z,51.5
2017-05-30T13:25:41.157Z,51.6
2017-05-30T13:26:44.497Z,51.6
2017-05-30T13:27:47.204Z,51.8
2017-05-30T13:28:50.802Z,51.9
2017-05-30T13:29:53.143Z,51.6
2017-05-30T13:30:56.492Z,51.4
2017-05-30T13:31:59.337Z,51.3
2017-05-30T13:33:02.548Z,51.2
2017-05-30T13:34:05.648Z,50.7
2017-05-30T13:35:08.352Z,50.7
2017-05-30T13:36:11.566Z,50.6
2017-05-30T13:37:14.776Z,49.8
2017-05-30T13:38:17.622Z,50.1
2017-05-30T13:39:21.084Z,50.1
2017-05-30T13:40:23.928Z,50.3
2017-05-30T13:41:26.768Z,50.3
2017-05-30T13:42:29.611Z,50.1
2017-05-30T13:43:32.956Z,50.1
2017-05-30T13:44:35.914Z,50.1
2017-05-30T13:45:39.027Z,50
2017-05-30T13:46:42.104Z,49.9
2017-05-30T13:47:44.952Z,49.7
2017-05-30T13:48:48.175Z,49.8
2017-05-30T13:49:51.326Z,49.9
2017-05-30T13:50:54.036Z,49.7
2017-05-30T13:51:57.249Z,50
2017-05-30T13:52:59.959Z,49.8
2017-05-30T13:55:06.467Z,50
2017-05-30T13:56:09.312Z,49.9
2017-05-30T13:57:12.085Z,49.9
2017-05-30T13:58:15.427Z,49.9
2017-05-30T13:59:18.136Z,49
2017-05-30T14:00:21.744Z,49.2
2017-05-30T14:01:24.450Z,49.2
2017-05-30T14:02:27.666Z,49.1
2017-05-30T14:03:30.377Z,48.8
2017-05-30T14:04:33.585Z,48.6
2017-05-30T14:05:37.048Z,48.2
2017-05-30T14:06:39.892Z,48.4
2017-05-30T14:07:42.740Z,48
2017-05-30T14:08:45.586Z,48.2
2017-05-30T14:09:48.798Z,48.7
2017-05-30T14:10:51.935Z,49.1
2017-05-30T14:11:54.775Z,49.1
2017-05-30T14:12:58.169Z,48.7
2017-05-30T14:14:01.013Z,48.3
2017-05-30T14:15:04.222Z,48.2
2017-05-30T14:16:07.187Z,47.8
2017-05-30T14:17:10.397Z,47.7
2017-05-30T14:18:13.241Z,48
2017-05-30T14:19:16.087Z,48.3
2017-05-30T14:20:19.436Z,48.3
2017-05-30T14:21:22.531Z,48.8
2017-05-30T14:22:25.377Z,49.4
2017-05-30T14:23:28.589Z,49.3
2017-05-30T14:24:31.433Z,49.5